sensor_id;sensor_type;location;lat;lon;timestamp;pressure;altitude;pressure_sealevel;temperature;humidity
9187;BME280;7273;48.902;9.410;2022-12-17T00:01:22;98332.72;;;-3.90;80.03
9187;BME280;7273;48.902;9.410;2022-12-17T00:04:06;98344.22;;;-3.83;80.10
9187;BME280;7273;48.902;9.410;2022-12-17T00:06:50;98339.28;;;-4.01;79.97
9187;BME280;7273;48.902;9.410;2022-12-17T00:09:34;98335.53;;;-3.92;79.71
9187;BME280;7273;48.902;9.410;2022-12-17T00:12:18;98340.19;;;-3.94;80.14
9187;BME280;7273;48.902;9.410;2022-12-17T00:15:02;98343.00;;;-3.95;79.89
9187;BME280;7273;48.902;9.410;2022-12-17T00:17:46;98341.25;;;-4.03;79.67
9187;BME280;7273;48.902;9.410;2022-12-17T00:20:30;98346.53;;;-4.03;80.16
9187;BME280;7273;48.902;9.410;2022-12-17T00:23:14;98353.16;;;-4.07;79.60
9187;BME280;7273;48.902;9.410;2022-12-17T00:25:58;98358.06;;;-4.04;80.09
9187;BME280;7273;48.902;9.410;2022-12-17T00:28:42;98366.72;;;-4.10;80.03
9187;BME280;7273;48.902;9.410;2022-12-17T00:31:27;98372.28;;;-4.05;80.35
9187;BME280;7273;48.902;9.410;2022-12-17T00:34:11;98368.16;;;-4.07;79.94
9187;BME280;7273;48.902;9.410;2022-12-17T00:36:56;98366.44;;;-4.15;79.74
9187;BME280;7273;48.902;9.410;2022-12-17T00:39:40;98366.84;;;-4.26;79.89
9187;BME280;7273;48.902;9.410;2022-12-17T00:42:24;98372.41;;;-4.21;80.05
9187;BME280;7273;48.902;9.410;2022-12-17T00:45:08;98377.47;;;-4.34;79.68
9187;BME280;7273;48.902;9.410;2022-12-17T00:47:53;98378.13;;;-4.40;79.88
9187;BME280;7273;48.902;9.410;2022-12-17T00:50:37;98386.47;;;-4.51;79.64
9187;BME280;7273;48.902;9.410;2022-12-17T00:53:22;98388.00;;;-4.57;79.57
9187;BME280;7273;48.902;9.410;2022-12-17T00:56:06;98390.50;;;-4.63;79.52
9187;BME280;7273;48.902;9.410;2022-12-17T00:58:49;98387.88;;;-4.71;79.36
9187;BME280;7273;48.902;9.410;2022-12-17T01:01:34;98392.84;;;-4.68;79.58
9187;BME280;7273;48.902;9.410;2022-12-17T01:04:17;98391.38;;;-4.79;79.52
9187;BME280;7273;48.902;9.410;2022-12-17T01:07:01;98392.72;;;-4.83;79.61
9187;BME280;7273;48.902;9.410;2022-12-17T01:09:45;98405.88;;;-4.75;79.66
9187;BME280;7273;48.902;9.410;2022-12-17T01:12:29;98402.72;;;-4.70;79.79
9187;BME280;7273;48.902;9.410;2022-12-17T01:15:13;98412.84;;;-4.82;80.20
9187;BME280;7273;48.902;9.410;2022-12-17T01:17:57;98416.03;;;-4.94;80.28
9187;BME280;7273;48.902;9.410;2022-12-17T01:20:41;98415.88;;;-5.01;80.55
9187;BME280;7273;48.902;9.410;2022-12-17T01:23:45;98412.63;;;-5.11;80.78
9187;BME280;7273;48.902;9.410;2022-12-17T01:26:29;98410.78;;;-5.10;80.88
9187;BME280;7273;48.902;9.410;2022-12-17T01:29:14;98414.03;;;-5.00;81.07
9187;BME280;7273;48.902;9.410;2022-12-17T01:31:58;98421.00;;;-5.15;80.76
9187;BME280;7273;48.902;9.410;2022-12-17T01:34:42;98424.44;;;-5.07;81.10
9187;BME280;7273;48.902;9.410;2022-12-17T01:37:26;98427.75;;;-5.05;81.24
9187;BME280;7273;48.902;9.410;2022-12-17T01:40:10;98425.31;;;-5.14;81.17
9187;BME280;7273;48.902;9.410;2022-12-17T01:42:54;98427.44;;;-5.18;81.10
9187;BME280;7273;48.902;9.410;2022-12-17T01:45:42;98426.75;;;-5.12;81.06
9187;BME280;7273;48.902;9.410;2022-12-17T01:48:30;98434.88;;;-5.21;81.21
9187;BME280;7273;48.902;9.410;2022-12-17T01:51:17;98437.66;;;-5.23;81.29
9187;BME280;7273;48.902;9.410;2022-12-17T01:54:02;98432.75;;;-5.26;81.16
9187;BME280;7273;48.902;9.410;2022-12-17T01:56:47;98437.50;;;-5.21;81.22
9187;BME280;7273;48.902;9.410;2022-12-17T02:02:21;98444.44;;;-5.36;80.84
9187;BME280;7273;48.902;9.410;2022-12-17T02:05:05;98447.91;;;-5.44;80.56
9187;BME280;7273;48.902;9.410;2022-12-17T02:08:18;98450.22;;;-5.49;80.57
9187;BME280;7273;48.902;9.410;2022-12-17T02:11:51;98458.13;;;-5.49;80.41
9187;BME280;7273;48.902;9.410;2022-12-17T02:14:32;98452.03;;;-5.50;80.26
9187;BME280;7273;48.902;9.410;2022-12-17T02:17:24;98460.44;;;-5.70;79.95
9187;BME280;7273;48.902;9.410;2022-12-17T02:25:58;98477.91;;;-5.85;79.83
9187;BME280;7273;48.902;9.410;2022-12-17T02:28:47;98476.56;;;-5.97;79.83
9187;BME280;7273;48.902;9.410;2022-12-17T02:31:38;98476.41;;;-5.96;79.76
9187;BME280;7273;48.902;9.410;2022-12-17T02:34:23;98476.28;;;-5.94;79.96
9187;BME280;7273;48.902;9.410;2022-12-17T02:37:07;98480.53;;;-5.93;80.02
9187;BME280;7273;48.902;9.410;2022-12-17T02:39:51;98478.25;;;-5.88;79.85
9187;BME280;7273;48.902;9.410;2022-12-17T02:42:35;98484.47;;;-5.81;80.13
9187;BME280;7273;48.902;9.410;2022-12-17T02:45:19;98478.06;;;-5.79;80.32
9187;BME280;7273;48.902;9.410;2022-12-17T02:48:04;98479.06;;;-5.64;80.55
9187;BME280;7273;48.902;9.410;2022-12-17T02:50:50;98486.28;;;-5.66;80.53
9187;BME280;7273;48.902;9.410;2022-12-17T02:53:34;98489.41;;;-5.62;80.54
9187;BME280;7273;48.902;9.410;2022-12-17T02:56:24;98496.47;;;-5.55;80.68
9187;BME280;7273;48.902;9.410;2022-12-17T02:59:07;98495.69;;;-5.47;80.89
9187;BME280;7273;48.902;9.410;2022-12-17T03:01:52;98500.28;;;-5.41;80.92
9187;BME280;7273;48.902;9.410;2022-12-17T03:04:35;98508.19;;;-5.41;81.03
9187;BME280;7273;48.902;9.410;2022-12-17T03:07:36;98514.44;;;-5.34;81.25
9187;BME280;7273;48.902;9.410;2022-12-17T03:10:20;98518.38;;;-5.38;81.31
9187;BME280;7273;48.902;9.410;2022-12-17T03:13:04;98517.06;;;-5.26;81.48
9187;BME280;7273;48.902;9.410;2022-12-17T03:15:48;98522.16;;;-5.16;81.64
9187;BME280;7273;48.902;9.410;2022-12-17T03:18:32;98522.34;;;-5.26;81.58
9187;BME280;7273;48.902;9.410;2022-12-17T03:21:15;98518.53;;;-5.15;81.69
9187;BME280;7273;48.902;9.410;2022-12-17T03:24:00;98522.13;;;-5.00;82.03
9187;BME280;7273;48.902;9.410;2022-12-17T03:26:43;98536.16;;;-5.08;81.74
9187;BME280;7273;48.902;9.410;2022-12-17T03:29:27;98536.31;;;-5.01;81.85
9187;BME280;7273;48.902;9.410;2022-12-17T03:32:11;98540.75;;;-5.02;82.15
9187;BME280;7273;48.902;9.410;2022-12-17T03:34:56;98534.81;;;-4.96;82.10
9187;BME280;7273;48.902;9.410;2022-12-17T03:37:40;98530.66;;;-4.82;82.31
9187;BME280;7273;48.902;9.410;2022-12-17T03:40:24;98533.81;;;-4.87;82.44
9187;BME280;7273;48.902;9.410;2022-12-17T03:43:10;98545.66;;;-4.83;82.15
9187;BME280;7273;48.902;9.410;2022-12-17T03:45:54;98540.84;;;-4.71;82.29
9187;BME280;7273;48.902;9.410;2022-12-17T03:48:43;98542.19;;;-4.75;82.18
9187;BME280;7273;48.902;9.410;2022-12-17T03:51:47;98539.72;;;-4.69;82.29
9187;BME280;7273;48.902;9.410;2022-12-17T03:54:30;98542.50;;;-4.62;82.30
9187;BME280;7273;48.902;9.410;2022-12-17T03:57:14;98544.63;;;-4.58;82.38
9187;BME280;7273;48.902;9.410;2022-12-17T03:59:58;98543.28;;;-4.54;82.17
9187;BME280;7273;48.902;9.410;2022-12-17T04:02:42;98544.97;;;-4.61;82.11
9187;BME280;7273;48.902;9.410;2022-12-17T04:05:26;98545.75;;;-4.52;82.21
9187;BME280;7273;48.902;9.410;2022-12-17T04:08:10;98547.88;;;-4.48;81.81
9187;BME280;7273;48.902;9.410;2022-12-17T04:10:54;98547.88;;;-4.48;82.07
9187;BME280;7273;48.902;9.410;2022-12-17T04:13:38;98548.63;;;-4.78;81.53
9187;BME280;7273;48.902;9.410;2022-12-17T04:16:22;98561.47;;;-4.67;81.88
9187;BME280;7273;48.902;9.410;2022-12-17T04:19:06;98562.75;;;-4.63;81.97
9187;BME280;7273;48.902;9.410;2022-12-17T04:21:50;98567.38;;;-4.65;82.13
9187;BME280;7273;48.902;9.410;2022-12-17T04:24:33;98572.16;;;-4.52;82.31
9187;BME280;7273;48.902;9.410;2022-12-17T04:27:17;98573.13;;;-4.53;81.99
9187;BME280;7273;48.902;9.410;2022-12-17T04:30:02;98573.13;;;-4.53;82.12
9187;BME280;7273;48.902;9.410;2022-12-17T04:32:46;98584.19;;;-4.58;81.95
9187;BME280;7273;48.902;9.410;2022-12-17T04:35:30;98586.84;;;-4.66;81.85
9187;BME280;7273;48.902;9.410;2022-12-17T04:38:14;98580.28;;;-4.70;81.92
9187;BME280;7273;48.902;9.410;2022-12-17T04:40:58;98579.13;;;-4.75;82.33
9187;BME280;7273;48.902;9.410;2022-12-17T04:43:42;98590.00;;;-4.70;82.37
9187;BME280;7273;48.902;9.410;2022-12-17T04:46:26;98588.47;;;-4.65;82.67
9187;BME280;7273;48.902;9.410;2022-12-17T04:49:10;98590.31;;;-4.65;82.54
9187;BME280;7273;48.902;9.410;2022-12-17T04:51:54;98595.09;;;-4.69;82.59
9187;BME280;7273;48.902;9.410;2022-12-17T04:54:38;98597.22;;;-4.64;82.43
9187;BME280;7273;48.902;9.410;2022-12-17T04:57:22;98598.56;;;-4.68;82.51
9187;BME280;7273;48.902;9.410;2022-12-17T05:00:06;98606.16;;;-4.81;82.14
9187;BME280;7273;48.902;9.410;2022-12-17T05:02:50;98605.50;;;-4.91;82.18
9187;BME280;7273;48.902;9.410;2022-12-17T05:05:34;98609.78;;;-4.90;82.51
9187;BME280;7273;48.902;9.410;2022-12-17T05:08:18;98612.75;;;-4.85;82.91
9187;BME280;7273;48.902;9.410;2022-12-17T05:11:03;98610.59;;;-4.82;82.85
9187;BME280;7273;48.902;9.410;2022-12-17T05:13:47;98617.34;;;-4.79;82.74
9187;BME280;7273;48.902;9.410;2022-12-17T05:16:31;98623.78;;;-4.74;82.56
9187;BME280;7273;48.902;9.410;2022-12-17T05:19:15;98621.47;;;-4.77;82.71
9187;BME280;7273;48.902;9.410;2022-12-17T05:21:59;98626.75;;;-4.69;83.08
9187;BME280;7273;48.902;9.410;2022-12-17T05:24:43;98626.59;;;-4.75;83.08
9187;BME280;7273;48.902;9.410;2022-12-17T05:27:27;98631.19;;;-4.69;82.80
9187;BME280;7273;48.902;9.410;2022-12-17T05:30:11;98631.53;;;-4.80;83.10
9187;BME280;7273;48.902;9.410;2022-12-17T05:32:59;98639.59;;;-4.66;82.73
9187;BME280;7273;48.902;9.410;2022-12-17T05:35:43;98637.63;;;-4.64;82.95
9187;BME280;7273;48.902;9.410;2022-12-17T05:38:27;98640.44;;;-4.81;82.93
9187;BME280;7273;48.902;9.410;2022-12-17T05:41:19;98637.78;;;-4.89;82.84
9187;BME280;7273;48.902;9.410;2022-12-17T05:44:02;98641.44;;;-4.90;83.05
9187;BME280;7273;48.902;9.410;2022-12-17T05:46:46;98640.59;;;-4.83;83.06
9187;BME280;7273;48.902;9.410;2022-12-17T05:49:30;98650.16;;;-4.82;83.07
9187;BME280;7273;48.902;9.410;2022-12-17T05:52:14;98649.50;;;-4.84;83.24
9187;BME280;7273;48.902;9.410;2022-12-17T05:54:58;98657.56;;;-4.77;82.79
9187;BME280;7273;48.902;9.410;2022-12-17T05:57:42;98657.59;;;-4.85;82.96
9187;BME280;7273;48.902;9.410;2022-12-17T06:00:26;98656.56;;;-4.84;82.88
9187;BME280;7273;48.902;9.410;2022-12-17T06:03:10;98660.88;;;-4.75;83.24
9187;BME280;7273;48.902;9.410;2022-12-17T06:05:55;98664.19;;;-4.81;83.14
9187;BME280;7273;48.902;9.410;2022-12-17T06:08:39;98669.47;;;-4.81;83.05
9187;BME280;7273;48.902;9.410;2022-12-17T06:11:23;98676.88;;;-4.93;82.85
9187;BME280;7273;48.902;9.410;2022-12-17T06:14:07;98681.31;;;-4.77;82.72
9187;BME280;7273;48.902;9.410;2022-12-17T06:16:51;98685.13;;;-4.80;82.94
9187;BME280;7273;48.902;9.410;2022-12-17T06:19:35;98682.66;;;-4.81;83.02
9187;BME280;7273;48.902;9.410;2022-12-17T06:22:19;98679.00;;;-4.72;82.93
9187;BME280;7273;48.902;9.410;2022-12-17T06:25:03;98684.44;;;-4.90;82.40
9187;BME280;7273;48.902;9.410;2022-12-17T06:27:47;98685.75;;;-4.86;82.45
9187;BME280;7273;48.902;9.410;2022-12-17T06:30:32;98690.69;;;-4.83;82.38
9187;BME280;7273;48.902;9.410;2022-12-17T06:33:16;98701.25;;;-4.91;82.38
9187;BME280;7273;48.902;9.410;2022-12-17T06:36:00;98699.78;;;-4.93;82.27
9187;BME280;7273;48.902;9.410;2022-12-17T06:38:44;98697.63;;;-4.90;82.06
9187;BME280;7273;48.902;9.410;2022-12-17T06:41:28;98700.91;;;-4.96;82.18
9187;BME280;7273;48.902;9.410;2022-12-17T06:44:12;98716.41;;;-5.01;82.32
9187;BME280;7273;48.902;9.410;2022-12-17T06:46:56;98707.69;;;-4.93;82.56
9187;BME280;7273;48.902;9.410;2022-12-17T06:49:40;98708.34;;;-4.99;82.29
9187;BME280;7273;48.902;9.410;2022-12-17T06:52:24;98709.31;;;-4.92;82.48
9187;BME280;7273;48.902;9.410;2022-12-17T06:55:08;98706.84;;;-4.94;82.14
9187;BME280;7273;48.902;9.410;2022-12-17T06:57:59;98712.63;;;-4.98;81.93
9187;BME280;7273;48.902;9.410;2022-12-17T07:00:44;98722.50;;;-5.00;82.24
9187;BME280;7273;48.902;9.410;2022-12-17T07:03:28;98718.38;;;-4.95;82.09
9187;BME280;7273;48.902;9.410;2022-12-17T07:06:12;98731.56;;;-4.95;82.47
9187;BME280;7273;48.902;9.410;2022-12-17T07:08:56;98731.59;;;-4.87;82.22
9187;BME280;7273;48.902;9.410;2022-12-17T07:11:40;98727.31;;;-4.88;82.20
9187;BME280;7273;48.902;9.410;2022-12-17T07:14:24;98730.13;;;-4.73;82.27
9187;BME280;7273;48.902;9.410;2022-12-17T07:17:08;98733.88;;;-4.76;82.38
9187;BME280;7273;48.902;9.410;2022-12-17T07:19:51;98740.16;;;-4.69;82.40
9187;BME280;7273;48.902;9.410;2022-12-17T07:22:36;98740.34;;;-4.62;82.22
9187;BME280;7273;48.902;9.410;2022-12-17T07:25:20;98744.63;;;-4.69;82.28
9187;BME280;7273;48.902;9.410;2022-12-17T07:28:04;98748.91;;;-4.68;82.26
9187;BME280;7273;48.902;9.410;2022-12-17T07:30:48;98751.56;;;-4.68;81.98
9187;BME280;7273;48.902;9.410;2022-12-17T07:33:32;98756.34;;;-4.72;82.11
9187;BME280;7273;48.902;9.410;2022-12-17T07:36:16;98764.25;;;-4.56;82.23
9187;BME280;7273;48.902;9.410;2022-12-17T07:39:00;98762.91;;;-4.52;82.26
9187;BME280;7273;48.902;9.410;2022-12-17T07:41:44;98774.81;;;-4.56;81.86
9187;BME280;7273;48.902;9.410;2022-12-17T07:44:28;98777.09;;;-4.61;82.16
9187;BME280;7273;48.902;9.410;2022-12-17T07:47:12;98786.50;;;-4.58;81.84
9187;BME280;7273;48.902;9.410;2022-12-17T07:49:56;98786.53;;;-4.50;81.99
9187;BME280;7273;48.902;9.410;2022-12-17T07:52:40;98784.19;;;-4.53;81.72
9187;BME280;7273;48.902;9.410;2022-12-17T07:55:23;98787.16;;;-4.64;81.69
9187;BME280;7273;48.902;9.410;2022-12-17T07:58:09;98795.41;;;-4.59;81.62
9187;BME280;7273;48.902;9.410;2022-12-17T08:00:54;98795.56;;;-4.61;81.69
9187;BME280;7273;48.902;9.410;2022-12-17T08:03:39;98801.19;;;-4.40;82.06
9187;BME280;7273;48.902;9.410;2022-12-17T08:06:23;98800.53;;;-4.42;81.79
9187;BME280;7273;48.902;9.410;2022-12-17T08:09:07;98815.41;;;-4.41;81.63
9187;BME280;7273;48.902;9.410;2022-12-17T08:11:51;98819.34;;;-4.29;81.59
9187;BME280;7273;48.902;9.410;2022-12-17T08:14:35;98823.31;;;-4.33;81.61
9187;BME280;7273;48.902;9.410;2022-12-17T08:17:19;98821.34;;;-4.31;81.32
9187;BME280;7273;48.902;9.410;2022-12-17T08:20:03;98823.81;;;-4.37;81.35
9187;BME280;7273;48.902;9.410;2022-12-17T08:22:47;98828.91;;;-4.44;81.08
9187;BME280;7273;48.902;9.410;2022-12-17T08:25:31;98832.69;;;-4.30;80.87
9187;BME280;7273;48.902;9.410;2022-12-17T08:28:15;98846.06;;;-4.32;80.84
9187;BME280;7273;48.902;9.410;2022-12-17T08:30:59;98844.41;;;-4.49;80.56
9187;BME280;7273;48.902;9.410;2022-12-17T08:33:43;98841.28;;;-4.44;80.84
9187;BME280;7273;48.902;9.410;2022-12-17T08:36:27;98846.38;;;-4.51;80.50
9187;BME280;7273;48.902;9.410;2022-12-17T08:39:11;98851.63;;;-4.67;80.74
9187;BME280;7273;48.902;9.410;2022-12-17T08:41:55;98850.66;;;-4.58;80.89
9187;BME280;7273;48.902;9.410;2022-12-17T08:44:39;98850.13;;;-4.61;81.13
9187;BME280;7273;48.902;9.410;2022-12-17T08:47:23;98859.06;;;-4.54;80.89
9187;BME280;7273;48.902;9.410;2022-12-17T08:50:07;98858.88;;;-4.61;80.85
9187;BME280;7273;48.902;9.410;2022-12-17T08:52:58;98867.50;;;-4.51;80.84
9187;BME280;7273;48.902;9.410;2022-12-17T08:55:42;98869.63;;;-4.54;80.94
9187;BME280;7273;48.902;9.410;2022-12-17T08:58:26;98874.59;;;-4.43;80.96
9187;BME280;7273;48.902;9.410;2022-12-17T09:01:10;98873.78;;;-4.44;80.75
9187;BME280;7273;48.902;9.410;2022-12-17T09:03:54;98872.28;;;-4.46;80.99
9187;BME280;7273;48.902;9.410;2022-12-17T09:06:38;98874.59;;;-4.43;80.48
9187;BME280;7273;48.902;9.410;2022-12-17T09:09:22;98880.56;;;-4.25;80.51
9187;BME280;7273;48.902;9.410;2022-12-17T09:12:06;98893.75;;;-4.25;80.88
9187;BME280;7273;48.902;9.410;2022-12-17T09:14:51;98893.25;;;-4.29;80.47
9187;BME280;7273;48.902;9.410;2022-12-17T09:17:34;98893.41;;;-4.22;80.33
9187;BME280;7273;48.902;9.410;2022-12-17T09:20:19;98900.69;;;-4.32;80.24
9187;BME280;7273;48.902;9.410;2022-12-17T09:23:02;98899.50;;;-4.38;80.66
9187;BME280;7273;48.902;9.410;2022-12-17T09:25:54;98908.63;;;-4.32;80.75
9187;BME280;7273;48.902;9.410;2022-12-17T09:28:38;98898.56;;;-4.13;80.89
9187;BME280;7273;48.902;9.410;2022-12-17T09:31:22;98904.81;;;-4.14;80.55
9187;BME280;7273;48.902;9.410;2022-12-17T09:34:06;98896.56;;;-4.11;80.80
9187;BME280;7273;48.902;9.410;2022-12-17T09:36:50;98899.56;;;-4.05;80.64
9187;BME280;7273;48.902;9.410;2022-12-17T09:39:34;98905.34;;;-4.02;80.80
9187;BME280;7273;48.902;9.410;2022-12-17T09:42:23;98910.09;;;-4.14;80.53
9187;BME280;7273;48.902;9.410;2022-12-17T09:45:17;98914.41;;;-4.13;80.50
9187;BME280;7273;48.902;9.410;2022-12-17T09:51:02;98911.78;;;-3.88;80.75
9187;BME280;7273;48.902;9.410;2022-12-17T09:53:51;98906.84;;;-3.91;80.32
9187;BME280;7273;48.902;9.410;2022-12-17T09:56:37;98907.50;;;-3.81;80.68
9187;BME280;7273;48.902;9.410;2022-12-17T09:59:33;98902.22;;;-3.81;80.47
9187;BME280;7273;48.902;9.410;2022-12-17T10:02:25;98902.19;;;-3.97;80.18
9187;BME280;7273;48.902;9.410;2022-12-17T10:05:18;98905.50;;;-3.79;80.70
9187;BME280;7273;48.902;9.410;2022-12-17T10:08:05;98898.06;;;-3.76;80.07
9187;BME280;7273;48.902;9.410;2022-12-17T10:10:51;98898.75;;;-3.82;80.20
9187;BME280;7273;48.902;9.410;2022-12-17T10:13:35;98893.31;;;-3.96;80.61
9187;BME280;7273;48.902;9.410;2022-12-17T10:16:36;98893.97;;;-3.86;80.63
9187;BME280;7273;48.902;9.410;2022-12-17T10:19:29;98886.22;;;-3.80;80.02
9187;BME280;7273;48.902;9.410;2022-12-17T10:22:16;98894.63;;;-3.68;80.32
9187;BME280;7273;48.902;9.410;2022-12-17T10:28:04;98892.28;;;-3.71;80.21
9187;BME280;7273;48.902;9.410;2022-12-17T10:30:49;98889.97;;;-3.66;80.16
9187;BME280;7273;48.902;9.410;2022-12-17T10:33:37;98904.53;;;-3.86;80.24
9187;BME280;7273;48.902;9.410;2022-12-17T10:36:22;98894.47;;;-3.75;80.40
9187;BME280;7273;48.902;9.410;2022-12-17T10:39:27;98900.88;;;-3.69;80.51
9187;BME280;7273;48.902;9.410;2022-12-17T10:45:32;98904.50;;;-3.62;80.45
9187;BME280;7273;48.902;9.410;2022-12-17T10:48:24;98911.94;;;-3.58;80.63
9187;BME280;7273;48.902;9.410;2022-12-17T10:51:30;98913.75;;;-3.82;80.05
9187;BME280;7273;48.902;9.410;2022-12-17T10:54:28;98915.59;;;-3.67;80.19
9187;BME280;7273;48.902;9.410;2022-12-17T10:57:37;98910.97;;;-3.89;80.29
9187;BME280;7273;48.902;9.410;2022-12-17T11:06:14;98916.25;;;-3.81;80.37
9187;BME280;7273;48.902;9.410;2022-12-17T11:09:00;98911.28;;;-3.76;80.18
9187;BME280;7273;48.902;9.410;2022-12-17T11:11:45;98917.91;;;-3.80;80.30
9187;BME280;7273;48.902;9.410;2022-12-17T11:14:32;98916.09;;;-3.63;80.28
9187;BME280;7273;48.902;9.410;2022-12-17T11:17:22;98906.50;;;-3.80;80.38
9187;BME280;7273;48.902;9.410;2022-12-17T11:20:22;98914.94;;;-3.69;80.53
9187;BME280;7273;48.902;9.410;2022-12-17T11:23:16;98917.72;;;-3.62;80.54
9187;BME280;7273;48.902;9.410;2022-12-17T11:26:12;98916.88;;;-3.55;80.13
9187;BME280;7273;48.902;9.410;2022-12-17T11:28:58;98920.84;;;-3.43;79.98
9187;BME280;7273;48.902;9.410;2022-12-17T11:37:37;98923.31;;;-3.41;79.64
9187;BME280;7273;48.902;9.410;2022-12-17T11:40:35;98929.63;;;-3.42;79.16
9187;BME280;7273;48.902;9.410;2022-12-17T11:49:19;98921.84;;;-3.44;79.20
9187;BME280;7273;48.902;9.410;2022-12-17T11:55:18;98929.44;;;-3.41;79.49
9187;BME280;7273;48.902;9.410;2022-12-17T11:58:11;98927.13;;;-3.52;79.37
9187;BME280;7273;48.902;9.410;2022-12-17T12:01:13;98937.06;;;-3.54;79.80
9187;BME280;7273;48.902;9.410;2022-12-17T12:07:22;98934.88;;;-3.58;79.41
9187;BME280;7273;48.902;9.410;2022-12-17T12:10:15;98926.31;;;-3.44;79.72
9187;BME280;7273;48.902;9.410;2022-12-17T12:13:03;98933.09;;;-3.58;79.41
9187;BME280;7273;48.902;9.410;2022-12-17T12:16:38;98930.94;;;-3.46;79.58
9187;BME280;7273;48.902;9.410;2022-12-17T12:19:15;98928.09;;;-3.37;79.97
9187;BME280;7273;48.902;9.410;2022-12-17T12:22:11;98926.63;;;-3.31;79.73
9187;BME280;7273;48.902;9.410;2022-12-17T12:25:14;98912.38;;;-3.22;79.84
9187;BME280;7273;48.902;9.410;2022-12-17T12:33:59;98917.34;;;-3.27;79.45
9187;BME280;7273;48.902;9.410;2022-12-17T12:36:46;98914.19;;;-3.15;79.93
9187;BME280;7273;48.902;9.410;2022-12-17T12:42:41;98922.78;;;-3.13;79.60
9187;BME280;7273;48.902;9.410;2022-12-17T12:53:58;98911.31;;;-2.97;79.69
9187;BME280;7273;48.902;9.410;2022-12-17T12:56:42;98909.19;;;-3.02;79.41
9187;BME280;7273;48.902;9.410;2022-12-17T12:59:28;98907.06;;;-3.06;79.67
9187;BME280;7273;48.902;9.410;2022-12-17T13:05:15;98916.09;;;-2.93;79.27
9187;BME280;7273;48.902;9.410;2022-12-17T13:08:23;98913.47;;;-3.01;79.69
9187;BME280;7273;48.902;9.410;2022-12-17T13:10:51;98913.44;;;-2.93;79.71
9187;BME280;7273;48.902;9.410;2022-12-17T13:15:47;98913.34;;;-3.07;79.71
9187;BME280;7273;48.902;9.410;2022-12-17T13:23:40;98909.84;;;-3.00;80.00
9187;BME280;7273;48.902;9.410;2022-12-17T13:26:21;98907.19;;;-2.92;80.06
9187;BME280;7273;48.902;9.410;2022-12-17T13:31:23;98910.50;;;-2.98;79.43
9187;BME280;7273;48.902;9.410;2022-12-17T13:36:40;98911.13;;;-2.88;79.68
9187;BME280;7273;48.902;9.410;2022-12-17T13:41:59;98908.19;;;-3.01;79.56
9187;BME280;7273;48.902;9.410;2022-12-17T13:44:39;98905.34;;;-2.91;79.90
9187;BME280;7273;48.902;9.410;2022-12-17T13:47:18;98918.56;;;-2.91;79.45
9187;BME280;7273;48.902;9.410;2022-12-17T13:49:50;98918.41;;;-2.82;79.54
9187;BME280;7273;48.902;9.410;2022-12-17T13:52:18;98913.28;;;-2.91;79.90
9187;BME280;7273;48.902;9.410;2022-12-17T13:54:43;98914.28;;;-2.92;79.58
9187;BME280;7273;48.902;9.410;2022-12-17T13:57:13;98916.22;;;-2.78;79.93
9187;BME280;7273;48.902;9.410;2022-12-17T13:59:39;98917.25;;;-2.87;79.53
9187;BME280;7273;48.902;9.410;2022-12-17T14:02:05;98921.53;;;-2.86;79.60
9187;BME280;7273;48.902;9.410;2022-12-17T14:04:30;98919.53;;;-2.84;79.65
9187;BME280;7273;48.902;9.410;2022-12-17T14:07:03;98916.03;;;-2.77;79.80
9187;BME280;7273;48.902;9.410;2022-12-17T14:09:36;98925.47;;;-2.74;79.64
9187;BME280;7273;48.902;9.410;2022-12-17T14:12:04;98926.91;;;-2.63;79.68
9187;BME280;7273;48.902;9.410;2022-12-17T14:15:00;98925.75;;;-2.61;79.79
9187;BME280;7273;48.902;9.410;2022-12-17T14:17:46;98937.19;;;-2.68;79.57
9187;BME280;7273;48.902;9.410;2022-12-17T14:20:15;98933.44;;;-2.82;79.43
9187;BME280;7273;48.902;9.410;2022-12-17T14:22:47;98934.94;;;-2.88;79.51
9187;BME280;7273;48.902;9.410;2022-12-17T14:25:19;98935.78;;;-2.87;79.54
9187;BME280;7273;48.902;9.410;2022-12-17T14:28:05;98937.56;;;-2.80;79.60
9187;BME280;7273;48.902;9.410;2022-12-17T14:30:41;98942.66;;;-2.78;79.93
9187;BME280;7273;48.902;9.410;2022-12-17T14:33:27;98940.88;;;-2.86;79.86
9187;BME280;7273;48.902;9.410;2022-12-17T14:35:54;98934.44;;;-2.91;79.75
9187;BME280;7273;48.902;9.410;2022-12-17T14:38:21;98932.13;;;-2.86;79.72
9187;BME280;7273;48.902;9.410;2022-12-17T14:40:46;98923.69;;;-2.82;79.73
9187;BME280;7273;48.902;9.410;2022-12-17T14:43:13;98935.78;;;-2.87;79.69
9187;BME280;7273;48.902;9.410;2022-12-17T14:45:48;98946.19;;;-2.86;79.97
9187;BME280;7273;48.902;9.410;2022-12-17T14:48:32;98946.72;;;-2.98;79.75
9187;BME280;7273;48.902;9.410;2022-12-17T14:51:23;98937.78;;;-2.97;79.46
9187;BME280;7273;48.902;9.410;2022-12-17T14:53:51;98936.31;;;-3.08;79.42
9187;BME280;7273;48.902;9.410;2022-12-17T14:56:22;98943.44;;;-3.08;79.84
9187;BME280;7273;48.902;9.410;2022-12-17T14:58:47;98948.75;;;-3.16;79.56
9187;BME280;7273;48.902;9.410;2022-12-17T15:01:13;98946.25;;;-3.10;79.95
9187;BME280;7273;48.902;9.410;2022-12-17T15:03:41;98939.13;;;-3.17;79.63
9187;BME280;7273;48.902;9.410;2022-12-17T15:06:09;98935.53;;;-3.16;79.90
9187;BME280;7273;48.902;9.410;2022-12-17T15:08:39;98937.50;;;-3.18;79.81
9187;BME280;7273;48.902;9.410;2022-12-17T15:11:05;98935.03;;;-3.20;79.95
9187;BME280;7273;48.902;9.410;2022-12-17T15:13:31;98935.72;;;-3.26;79.48
9187;BME280;7273;48.902;9.410;2022-12-17T15:15:56;98948.75;;;-3.32;79.66
9187;BME280;7273;48.902;9.410;2022-12-17T15:18:22;98944.97;;;-3.30;79.93
9187;BME280;7273;48.902;9.410;2022-12-17T15:20:47;98950.25;;;-3.38;79.62
9187;BME280;7273;48.902;9.410;2022-12-17T15:23:18;98950.44;;;-3.47;79.53
9187;BME280;7273;48.902;9.410;2022-12-17T15:25:45;98956.88;;;-3.50;79.68
9187;BME280;7273;48.902;9.410;2022-12-17T15:28:11;98955.91;;;-3.57;79.70
9187;BME280;7273;48.902;9.410;2022-12-17T15:30:36;98952.59;;;-3.59;79.41
9187;BME280;7273;48.902;9.410;2022-12-17T15:33:04;98961.31;;;-3.58;79.85
9187;BME280;7273;48.902;9.410;2022-12-17T15:35:30;98962.16;;;-3.66;79.59
9187;BME280;7273;48.902;9.410;2022-12-17T15:37:56;98972.22;;;-3.69;79.37
9187;BME280;7273;48.902;9.410;2022-12-17T15:40:21;98959.50;;;-3.74;79.55
9187;BME280;7273;48.902;9.410;2022-12-17T15:42:46;98967.44;;;-3.82;79.78
9187;BME280;7273;48.902;9.410;2022-12-17T15:45:31;98965.28;;;-3.86;79.82
9187;BME280;7273;48.902;9.410;2022-12-17T15:47:56;98967.94;;;-3.86;79.66
9187;BME280;7273;48.902;9.410;2022-12-17T15:50:22;98970.56;;;-3.94;79.57
9187;BME280;7273;48.902;9.410;2022-12-17T15:52:47;98971.19;;;-4.00;79.34
9187;BME280;7273;48.902;9.410;2022-12-17T15:55:13;98968.38;;;-3.99;79.80
9187;BME280;7273;48.902;9.410;2022-12-17T15:57:39;98971.03;;;-3.91;80.09
9187;BME280;7273;48.902;9.410;2022-12-17T16:00:05;98975.97;;;-3.96;79.50
9187;BME280;7273;48.902;9.410;2022-12-17T16:02:30;98979.78;;;-3.90;79.69
9187;BME280;7273;48.902;9.410;2022-12-17T16:04:56;98984.06;;;-3.89;79.49
9187;BME280;7273;48.902;9.410;2022-12-17T16:07:21;98980.44;;;-4.04;79.51